Silver Star, Montana
Current Conditions -  °F | °C
As of 1:41 AM on Sunday 23 Nov 2014 (Local Time) from KBTM Reporting Station
Light Snow Light Snow  
Wind Chill: 16°   Ceiling: 1100
Heat Index: 27°   Visibility: 1.2mi
Dew Point: 24°   Wind: 13mph
Humidity: 89%   Direction: 310°NW
Pressure: 29.83"   Gusts: NA
Location:  45.69°N, 112.28°W
Report Text: KBTM 230841Z AUTO 31011KT 1 1/4SM -SN BR OVC011 M03/M04 A2983 RMK AO2 P0001 T10281044
Loading
Personal Weather Stations






























Interactive Weather Map New forecast layout! Learn more

10-Day Weather Forecast

Advertisements
Track Severe Weather on mobile